Time;durP1;ratioP1;P1;durP2;ratioP2;P2;SDS_P1;SDS_P2;PMS_P1;PMS_P2;Temp;Humidity;BMP_temperature;BMP_pressure;BME280_temperature;BME280_humidity;BME280_pressure;Samples;Min_cycle;Max_cycle;Signal;HPM_P1;HPM_P2
2022/08/15 00:01:20;;;;;;;4.43;3.97;;;;;;;20.42;nan;98889.41;5054658;28;20438;-79
2022/08/15 00:03:51;;;;;;;4.43;4.10;;;;;;;20.32;nan;98893.66;5051834;28;20446;-79
2022/08/15 00:06:21;;;;;;;4.10;3.80;;;;;;;20.26;nan;98889.13;5054377;28;20385;-80
2022/08/15 00:08:50;;;;;;;;;;;;;;;20.27;nan;98885.38;5050984;28;20094;-79
2022/08/15 00:11:27;;;;;;;4.22;3.92;;;;;;;20.32;nan;98882.91;5052386;28;20258;-79
2022/08/15 00:13:56;;;;;;;4.72;4.40;;;;;;;20.44;nan;98881.13;5046945;28;20180;-79
2022/08/15 00:16:22;;;;;;;4.40;4.10;;;;;;;20.56;nan;98883.91;5050328;28;20492;-81
2022/08/15 00:18:48;;;;;;;4.47;4.07;;;;;;;20.58;nan;98877.25;5054597;28;20388;-79
2022/08/15 00:21:17;;;;;;;4.47;3.50;;;;;;;20.66;nan;98879.66;5053894;28;20405;-78
2022/08/15 00:23:43;;;;;;;4.53;4.20;;;;;;;20.58;nan;98871.91;5051855;28;20378;-79
2022/08/15 00:26:10;;;;;;;4.25;3.95;;;;;;;20.62;nan;98865.03;5053644;28;20048;-77
2022/08/15 00:28:37;;;;;;;7.28;4.38;;;;;;;20.43;nan;98866.09;5050571;28;20370;-80
2022/08/15 00:31:08;;;;;;;4.95;4.55;;;;;;;20.46;nan;98872.88;5052496;28;20044;-80
2022/08/15 00:33:34;;;;;;;4.50;4.10;;;;;;;20.50;nan;98880.22;5050579;28;20029;-80
2022/08/15 00:36:00;;;;;;;5.72;4.10;;;;;;;20.53;nan;98876.31;5051370;28;20041;-79
2022/08/15 00:38:29;;;;;;;4.68;3.90;;;;;;;20.56;nan;98868.63;5050360;28;20083;-80
2022/08/15 00:43:50;;;;;;;4.53;4.15;;;;;;;20.48;nan;98874.28;5053649;28;20385;-78
2022/08/15 00:46:16;;;;;;;5.05;4.65;;;;;;;20.37;nan;98872.34;5052652;28;20091;-79
2022/08/15 00:48:42;;;;;;;4.30;4.00;;;;;;;20.29;nan;98872.59;5050666;28;20029;-80
2022/08/15 00:51:16;;;;;;;4.18;3.88;;;;;;;20.15;nan;98876.44;5050031;28;20025;-79
2022/08/15 00:53:46;;;;;;;4.88;4.45;;;;;;;20.06;nan;98869.75;5052239;28;20045;-80
2022/08/15 00:56:13;;;;;;;5.13;4.70;;;;;;;19.96;nan;98878.28;5052307;28;20083;-79
2022/08/15 00:58:41;;;;;;;5.05;4.57;;;;;;;19.86;nan;98884.09;5047194;28;20032;-79
2022/08/15 01:01:11;;;;;;;5.07;4.63;;;;;;;19.82;nan;98887.44;5050921;28;20453;-80
2022/08/15 01:03:40;;;;;;;5.45;4.70;;;;;;;19.80;nan;98879.63;5050122;28;20032;-80
2022/08/15 01:06:07;;;;;;;5.75;4.65;;;;;;;19.92;nan;98882.41;5046949;28;20041;-80
2022/08/15 01:08:38;;;;;;;5.03;4.72;;;;;;;19.99;nan;98878.66;5052970;28;20061;-80
2022/08/15 01:11:20;;;;;;;4.93;4.45;;;;;;;20.06;nan;98878.59;5047710;28;20037;-79
2022/08/15 01:13:47;;;;;;;5.78;5.35;;;;;;;20.00;nan;98880.28;5051785;28;20113;-80
2022/08/15 01:16:14;;;;;;;5.05;4.65;;;;;;;19.91;nan;98881.59;5048274;28;20119;-79
2022/08/15 01:18:41;;;;;;;5.30;4.80;;;;;;;19.84;nan;98890.75;5051614;28;20039;-79
2022/08/15 01:21:31;;;;;;;5.47;4.97;;;;;;;19.76;nan;98882.97;5051420;28;20104;-80
2022/08/15 01:24:19;;;;;;;5.15;4.75;;;;;;;19.75;nan;98886.69;5046790;28;20176;-80
2022/08/15 01:26:46;;;;;;;5.30;4.90;;;;;;;19.72;nan;98898.66;5050622;28;20128;-80
2022/08/15 01:29:17;;;;;;;6.43;5.50;;;;;;;19.63;nan;98889.22;5052553;28;20033;-79
2022/08/15 01:31:44;;;;;;;5.97;5.38;;;;;;;19.58;nan;98892.56;5050397;28;20065;-80
2022/08/15 01:34:10;;;;;;;6.55;5.40;;;;;;;19.60;nan;98895.84;5051145;28;20040;-80
2022/08/15 01:36:35;;;;;;;6.53;5.93;;;;;;;19.70;nan;98890.00;5044858;28;20029;-80
2022/08/15 01:39:15;;;;;;;6.63;5.90;;;;;;;19.77;nan;98889.97;5049588;28;20021;-80
2022/08/15 01:42:05;;;;;;;6.43;5.93;;;;;;;19.80;nan;98882.31;5050748;28;20059;-81
2022/08/15 01:44:44;;;;;;;7.15;6.30;;;;;;;19.80;nan;98893.00;5048773;28;20041;-80
2022/08/15 01:47:18;;;;;;;7.00;5.82;;;;;;;19.82;nan;98882.91;5051083;28;20558;-80
2022/08/15 01:50:20;;;;;;;6.25;5.65;;;;;;;19.94;nan;98886.53;5051361;28;20044;-80
2022/08/15 01:52:50;;;;;;;5.40;4.95;;;;;;;20.03;nan;98884.38;5018055;28;20083;-79
2022/08/15 01:55:20;;;;;;;5.28;4.90;;;;;;;20.03;nan;98879.84;5047738;28;20037;-80
2022/08/15 01:57:45;;;;;;;6.50;4.93;;;;;;;20.04;nan;98886.84;5079338;28;20485;-80
2022/08/15 02:00:11;;;;;;;5.80;5.30;;;;;;;20.02;nan;98883.59;5046892;28;20048;-79
2022/08/15 02:02:40;;;;;;;6.07;5.60;;;;;;;20.00;nan;98885.66;5049468;28;20485;-79
2022/08/15 02:05:07;;;;;;;6.43;5.65;;;;;;;19.96;nan;98889.81;5044242;28;20037;-80
2022/08/15 02:07:32;;;;;;;7.03;6.30;;;;;;;19.88;nan;98887.41;5048575;28;20431;-79
2022/08/15 02:09:59;;;;;;;6.22;5.63;;;;;;;19.79;nan;98883.34;5046379;28;20036;-79
2022/08/15 02:12:35;;;;;;;7.97;6.30;;;;;;;19.76;nan;98880.28;5050000;28;20087;-79
2022/08/15 02:15:06;;;;;;;6.38;5.88;;;;;;;19.71;nan;98894.34;5031966;28;20037;-79
2022/08/15 02:17:32;;;;;;;6.20;5.80;;;;;;;19.72;nan;98892.47;5050153;28;20040;-79
2022/08/15 02:19:59;;;;;;;7.38;6.85;;;;;;;19.73;nan;98889.59;5049902;28;20033;-80
2022/08/15 02:22:25;;;;;;;6.75;6.25;;;;;;;19.68;nan;98886.72;5045400;28;20474;-80
2022/08/15 02:24:51;;;;;;;6.10;5.70;;;;;;;19.66;nan;98888.00;5046565;28;20029;-79
2022/08/15 02:27:17;;;;;;;6.47;5.97;;;;;;;19.63;nan;98894.59;5047926;28;20059;-80
2022/08/15 02:29:43;;;;;;;6.90;6.30;;;;;;;19.60;nan;98897.72;5049627;28;20067;-80
2022/08/15 02:32:15;;;;;;;6.90;6.35;;;;;;;19.58;nan;98886.38;5047473;28;20033;-80
2022/08/15 02:34:41;;;;;;;;;;;;;;;19.56;nan;98883.91;5046819;28;20551;-79
2022/08/15 02:37:08;;;;;;;6.05;5.45;;;;;;;19.57;nan;98884.75;5048655;28;19925;-80
2022/08/15 02:39:34;;;;;;;8.00;6.03;;;;;;;19.56;nan;98877.75;5048447;28;20044;-80
2022/08/15 02:42:00;;;;;;;6.30;5.70;;;;;;;19.56;nan;98878.56;5046279;28;20140;-78
2022/08/15 02:44:26;;;;;;;7.28;6.32;;;;;;;19.57;nan;98887.41;5050444;28;20029;-80
2022/08/15 02:47:00;;;;;;;6.97;6.47;;;;;;;19.54;nan;98890.53;5045037;28;20033;-79
2022/08/15 02:49:27;;;;;;;7.13;6.50;;;;;;;19.49;nan;98893.06;5043453;28;20029;-80
2022/08/15 02:51:54;;;;;;;8.30;5.78;;;;;;;19.45;nan;98881.09;5045761;28;20026;-79
2022/08/15 02:54:26;;;;;;;7.47;6.72;;;;;;;19.47;nan;98879.88;5043548;28;20033;-80
2022/08/15 02:56:53;;;;;;;6.93;6.32;;;;;;;19.52;nan;98882.72;5046447;28;20025;-80
2022/08/15 02:59:18;;;;;;;7.20;6.70;;;;;;;19.59;nan;98872.81;5048070;28;20036;-77
2022/08/15 03:01:44;;;;;;;8.68;7.88;;;;;;;19.66;nan;98886.13;5049199;28;20052;-80
2022/08/15 03:04:16;;;;;;;8.18;7.38;;;;;;;19.72;nan;98877.25;5049110;28;20453;-80
2022/08/15 03:06:44;;;;;;;7.15;6.57;;;;;;;19.77;nan;98880.06;5047442;28;20033;-80
2022/08/15 03:09:12;;;;;;;7.43;6.82;;;;;;;19.74;nan;98874.31;5038578;28;20473;-79
2022/08/15 03:11:55;;;;;;;7.40;6.72;;;;;;;19.70;nan;98871.28;5044288;28;20033;-80
2022/08/15 03:14:22;;;;;;;7.47;6.82;;;;;;;19.69;nan;98872.31;5048958;28;20112;-80
2022/08/15 03:16:49;;;;;;;8.75;7.90;;;;;;;19.68;nan;98872.50;5049410;28;20477;-79
2022/08/15 03:19:22;;;;;;;9.30;8.50;;;;;;;19.48;nan;98870.00;5049689;28;20033;-79
2022/08/15 03:21:49;;;;;;;8.85;7.95;;;;;;;19.35;nan;98872.72;5045191;28;20599;-80
2022/08/15 03:24:15;;;;;;;8.00;7.28;;;;;;;19.28;nan;98874.63;5049343;28;20029;-79
2022/08/15 03:26:46;;;;;;;7.43;6.82;;;;;;;19.10;nan;98870.81;5044801;28;20029;-80
2022/08/15 03:29:16;;;;;;;7.25;6.50;;;;;;;19.11;nan;98875.13;5053561;28;20400;-80
2022/08/15 03:31:45;;;;;;;7.40;6.70;;;;;;;19.15;nan;98872.84;5052181;28;20496;-79
2022/08/15 03:34:13;;;;;;;7.05;6.43;;;;;;;19.19;nan;98877.56;5069067;28;20122;-80
2022/08/15 03:36:40;;;;;;;7.40;6.90;;;;;;;19.23;nan;98884.13;5052116;28;20033;-80
2022/08/15 03:39:06;;;;;;;8.32;7.75;;;;;;;19.22;nan;98882.47;5047904;28;20064;-80
2022/08/15 03:41:31;;;;;;;7.65;6.97;;;;;;;19.09;nan;98874.50;5053098;28;20110;-79
2022/08/15 03:43:57;;;;;;;7.35;6.75;;;;;;;19.06;nan;98866.94;5052187;28;20035;-80
2022/08/15 03:46:24;;;;;;;7.75;7.05;;;;;;;19.03;nan;98870.00;5053127;28;20040;-79
2022/08/15 03:48:53;;;;;;;8.57;7.20;;;;;;;18.95;nan;98867.59;5042221;28;20049;-80
2022/08/15 03:51:21;;;;;;;8.73;7.93;;;;;;;18.88;nan;98882.84;5050436;28;20033;-80
2022/08/15 03:53:53;;;;;;;8.80;7.97;;;;;;;18.84;nan;98878.97;5052103;28;20127;-80
2022/08/15 03:56:23;;;;;;;8.32;7.63;;;;;;;18.76;nan;98871.19;5081961;28;20041;-80
2022/08/15 03:58:49;;;;;;;8.50;7.80;;;;;;;18.71;nan;98873.66;5050822;28;20493;-80
2022/08/15 04:01:20;;;;;;;8.25;7.65;;;;;;;18.73;nan;98866.28;5052335;28;20500;-80
2022/08/15 04:03:48;;;;;;;9.70;7.60;;;;;;;18.74;nan;98867.88;5052054;28;20032;-80
2022/08/15 04:06:19;;;;;;;8.70;7.85;;;;;;;18.69;nan;98865.84;5053499;28;20040;-80
2022/08/15 04:08:49;;;;;;;8.82;8.23;;;;;;;18.61;nan;98867.94;5054771;28;20404;-79
2022/08/15 04:11:16;;;;;;;8.32;7.78;;;;;;;18.56;nan;98871.22;5046084;28;20099;-79
2022/08/15 04:13:43;;;;;;;9.45;8.75;;;;;;;18.50;nan;98879.22;5050571;28;20057;-79
2022/08/15 04:16:09;;;;;;;9.30;8.40;;;;;;;18.41;nan;98879.47;5050433;28;20041;-79
2022/08/15 04:18:36;;;;;;;9.65;8.85;;;;;;;18.45;nan;98876.38;5047075;28;20496;-80
2022/08/15 04:21:05;;;;;;;11.82;8.38;;;;;;;18.52;nan;98874.50;5052504;28;20424;-79
2022/08/15 04:23:31;;;;;;;8.88;8.07;;;;;;;18.62;nan;98882.94;5050816;28;20513;-79
2022/08/15 04:25:57;;;;;;;9.90;8.90;;;;;;;18.68;nan;98884.75;5051879;28;20033;-80
2022/08/15 04:28:29;;;;;;;9.50;8.57;;;;;;;18.72;nan;98880.66;5052069;28;20392;-80
2022/08/15 04:30:56;;;;;;;11.02;8.60;;;;;;;18.78;nan;98885.16;5051973;28;20032;-80
2022/08/15 04:33:25;;;;;;;9.48;8.60;;;;;;;18.83;nan;98881.84;5051128;28;20392;-80
2022/08/15 04:36:04;;;;;;;8.80;8.10;;;;;;;18.80;nan;98880.41;5042560;28;20359;-79
2022/08/15 04:38:32;;;;;;;8.80;8.00;;;;;;;18.81;nan;98876.69;5042683;28;20026;-80
2022/08/15 04:40:59;;;;;;;8.05;7.53;;;;;;;18.65;nan;98886.03;5045176;28;20334;-79
2022/08/15 04:43:25;;;;;;;8.18;7.47;;;;;;;18.42;nan;98891.00;5048916;28;20029;-80
2022/08/15 04:45:52;;;;;;;9.77;8.98;;;;;;;18.23;nan;98897.19;5032751;28;20151;-79
2022/08/15 04:48:20;;;;;;;9.80;9.00;;;;;;;18.08;nan;98897.41;5048961;28;20508;-80
2022/08/15 04:50:49;;;;;;;10.85;9.98;;;;;;;17.89;nan;98890.22;5048396;28;20086;-78
2022/08/15 04:53:17;;;;;;;10.68;9.77;;;;;;;17.79;nan;98895.16;5048942;28;20350;-79
2022/08/15 04:55:44;;;;;;;9.95;9.15;;;;;;;17.78;nan;98893.50;5051313;28;20064;-79
2022/08/15 04:58:13;;;;;;;10.90;9.88;;;;;;;17.76;nan;98890.22;5052760;28;20401;-79
2022/08/15 05:00:43;;;;;;;10.05;9.25;;;;;;;17.76;nan;98907.06;5051561;28;20037;-78
2022/08/15 05:03:17;;;;;;;11.02;9.98;;;;;;;17.83;nan;98907.06;5048589;28;20034;-80
2022/08/15 05:06:00;;;;;;;11.83;10.83;;;;;;;17.90;nan;98897.22;5049380;28;20029;-80
2022/08/15 05:08:31;;;;;;;12.20;10.90;;;;;;;17.87;nan;98897.59;5048716;28;20032;-80
2022/08/15 05:11:10;;;;;;;12.38;11.23;;;;;;;17.82;nan;98897.41;5050202;28;20036;-80
2022/08/15 05:13:38;;;;;;;12.48;11.32;;;;;;;17.80;nan;98907.44;5049018;28;20025;-81
2022/08/15 05:16:07;;;;;;;12.02;10.93;;;;;;;17.82;nan;98900.06;5049717;28;20041;-80
2022/08/15 05:18:41;;;;;;;13.20;11.98;;;;;;;17.90;nan;98902.56;5048168;28;20033;-80
2022/08/15 05:21:09;;;;;;;13.18;11.98;;;;;;;17.95;nan;98900.09;5050102;28;20091;-80
2022/08/15 05:23:37;;;;;;;14.52;13.13;;;;;;;17.99;nan;98901.31;5049874;28;20576;-80
2022/08/15 05:26:05;;;;;;;22.20;13.65;;;;;;;18.04;nan;98909.50;5050016;28;20057;-81
2022/08/15 05:28:33;;;;;;;15.13;13.63;;;;;;;18.05;nan;98905.00;5051263;28;20028;-80
2022/08/15 05:31:05;;;;;;;13.80;12.40;;;;;;;18.09;nan;98906.22;5050953;28;20033;-80
2022/08/15 05:33:31;;;;;;;15.57;13.98;;;;;;;18.12;nan;98905.81;5051149;28;20094;-80
2022/08/15 05:35:59;;;;;;;14.07;12.88;;;;;;;18.07;nan;98903.78;5049962;28;20478;-80
2022/08/15 05:38:52;;;;;;;14.23;12.75;;;;;;;18.11;nan;98909.50;5044703;28;20038;-80
2022/08/15 05:41:28;;;;;;;14.98;13.52;;;;;;;18.07;nan;98914.44;5046332;28;20417;-78
2022/08/15 05:44:28;;;;;;;14.23;12.88;;;;;;;18.07;nan;98909.13;5045116;28;20426;-80
2022/08/15 05:47:16;;;;;;;16.40;14.73;;;;;;;18.17;nan;98906.00;5049955;28;20061;-80
2022/08/15 05:49:42;;;;;;;16.98;15.38;;;;;;;18.28;nan;98911.53;5076551;28;20033;-80
2022/08/15 05:52:27;;;;;;;17.63;15.63;;;;;;;18.39;nan;98908.25;5049443;28;20087;-80
2022/08/15 05:54:56;;;;;;;17.65;15.75;;;;;;;18.44;nan;98906.81;5076349;28;20994;-79
2022/08/15 05:57:35;;;;;;;19.80;17.70;;;;;;;18.42;nan;98912.34;5049143;28;20033;-79
2022/08/15 06:00:12;;;;;;;18.75;16.83;;;;;;;18.42;nan;98907.84;5048511;28;20033;-81
2022/08/15 06:02:57;;;;;;;18.27;16.48;;;;;;;18.44;nan;98904.94;5033021;28;20113;-81
2022/08/15 06:05:34;;;;;;;17.77;16.17;;;;;;;18.51;nan;98905.75;5067468;28;20033;-80
2022/08/15 06:08:07;;;;;;;18.67;16.88;;;;;;;18.60;nan;98909.06;5061132;28;20033;-80
2022/08/15 06:10:42;;;;;;;19.17;16.33;;;;;;;18.63;nan;98897.94;5050603;28;20385;-79
2022/08/15 06:13:16;;;;;;;18.58;16.77;;;;;;;18.64;nan;98899.59;5080448;28;20029;-80
2022/08/15 06:16:01;;;;;;;17.58;15.77;;;;;;;18.68;nan;98900.78;5045419;28;20515;-80
2022/08/15 06:18:34;;;;;;;18.70;16.90;;;;;;;18.76;nan;98908.59;5044413;28;20039;-80
2022/08/15 06:21:30;;;;;;;18.17;16.25;;;;;;;18.87;nan;98905.25;5049408;28;20152;-80
2022/08/15 06:24:00;;;;;;;18.90;17.10;;;;;;;18.99;nan;98908.91;5042661;28;20362;-80
2022/08/15 06:26:49;;;;;;;18.17;16.48;;;;;;;19.12;nan;98902.69;5049297;28;20028;-80
2022/08/15 06:29:35;;;;;;;16.92;15.38;;;;;;;19.22;nan;98893.16;5046277;28;20045;-80
2022/08/15 06:32:07;;;;;;;16.63;14.82;;;;;;;19.34;nan;98895.97;5049983;28;20048;-80
2022/08/15 06:34:47;;;;;;;16.10;14.70;;;;;;;19.41;nan;98896.78;5047582;28;20393;-80
2022/08/15 06:37:21;;;;;;;16.25;14.65;;;;;;;19.52;nan;98901.47;5046906;28;20124;-79
2022/08/15 06:39:59;;;;;;;16.63;14.60;;;;;;;19.64;nan;98901.59;5030793;28;20446;-81
2022/08/15 06:42:34;;;;;;;15.15;13.85;;;;;;;19.77;nan;98911.38;5047295;28;20568;-80
2022/08/15 06:45:07;;;;;;;14.70;13.43;;;;;;;19.86;nan;98902.84;5050656;28;20674;-80
2022/08/15 06:47:33;;;;;;;14.25;12.98;;;;;;;19.95;nan;98906.91;5049069;28;20033;-80
2022/08/15 06:50:11;;;;;;;13.80;12.50;;;;;;;20.01;nan;98908.72;5044785;28;20242;-79
2022/08/15 06:52:38;;;;;;;13.60;12.40;;;;;;;20.10;nan;98903.06;5031287;28;20446;-80
2022/08/15 06:55:04;;;;;;;13.82;12.52;;;;;;;20.17;nan;98906.50;5049747;28;20037;-80
2022/08/15 06:57:43;;;;;;;13.40;12.20;;;;;;;20.19;nan;98910.63;5050079;28;20096;-80
2022/08/15 07:00:15;;;;;;;14.18;12.88;;;;;;;20.13;nan;98905.31;5048483;28;20398;-80
2022/08/15 07:03:00;;;;;;;11.60;10.70;;;;;;;20.14;nan;98902.44;5079590;28;20025;-81
2022/08/15 07:05:34;;;;;;;12.05;11.13;;;;;;;20.22;nan;98898.63;5048397;28;20044;-80
2022/08/15 07:08:40;;;;;;;10.57;9.68;;;;;;;20.30;nan;98907.22;5050289;28;20025;-80
2022/08/15 07:11:09;;;;;;;10.77;9.88;;;;;;;20.35;nan;98903.91;5035161;28;20053;-81
2022/08/15 07:14:24;;;;;;;10.40;9.60;;;;;;;20.42;nan;98893.94;5034483;28;20029;-81
2022/08/15 07:17:12;;;;;;;11.55;10.38;;;;;;;20.53;nan;98895.06;5047758;28;20366;-80
2022/08/15 07:19:38;;;;;;;10.60;9.70;;;;;;;20.61;nan;98898.28;5044465;28;20056;-80
2022/08/15 07:22:11;;;;;;;10.65;9.65;;;;;;;20.71;nan;98906.63;5046602;28;20116;-80
2022/08/15 07:24:47;;;;;;;10.60;9.50;;;;;;;20.78;nan;98904.69;5049254;28;20140;-80
2022/08/15 07:27:17;;;;;;;9.93;9.00;;;;;;;20.85;nan;98910.75;5048515;28;20116;-80
2022/08/15 07:29:54;;;;;;;9.73;8.68;;;;;;;20.90;nan;98906.59;5046928;28;20043;-80
2022/08/15 07:32:20;;;;;;;8.90;8.10;;;;;;;20.94;nan;98907.78;5047965;28;20037;-79
2022/08/15 07:35:04;;;;;;;8.23;6.65;;;;;;;21.04;nan;98908.88;5049963;28;20025;-80
2022/08/15 07:37:36;;;;;;;7.85;7.20;;;;;;;21.12;nan;98916.63;5049234;28;20037;-80
2022/08/15 07:40:27;;;;;;;7.18;6.47;;;;;;;21.23;nan;98918.59;5049778;28;20037;-80
2022/08/15 07:42:54;;;;;;;6.70;6.10;;;;;;;21.32;nan;98924.47;5044900;28;20043;-80
2022/08/15 07:45:36;;;;;;;6.57;5.95;;;;;;;21.43;nan;98931.75;5043326;28;20059;-80
2022/08/15 07:48:39;;;;;;;6.78;6.18;;;;;;;21.49;nan;98928.16;5045028;28;20428;-81
2022/08/15 07:51:38;;;;;;;6.50;5.43;;;;;;;21.58;nan;98916.03;5049806;28;20497;-79
2022/08/15 07:54:43;;;;;;;7.18;6.38;;;;;;;21.68;nan;98915.47;5079018;28;20060;-80
2022/08/15 07:57:21;;;;;;;5.82;5.32;;;;;;;21.73;nan;98922.84;5065386;28;20029;-80
2022/08/15 08:00:15;;;;;;;6.00;5.40;;;;;;;21.79;nan;98921.94;5048850;28;20069;-80
2022/08/15 08:03:15;;;;;;;5.45;4.55;;;;;;;21.87;nan;98922.41;5045256;28;20048;-80
2022/08/15 08:06:02;;;;;;;4.45;4.05;;;;;;;21.97;nan;98922.69;5047580;28;20025;-79
2022/08/15 08:08:41;;;;;;;4.82;4.43;;;;;;;22.05;nan;98924.22;5047472;28;20036;-80
2022/08/15 08:11:19;;;;;;;4.38;4.07;;;;;;;22.14;nan;98925.53;5049592;28;20083;-80
2022/08/15 08:14:01;;;;;;;5.32;4.80;;;;;;;22.23;nan;98925.97;5048303;28;21596;-80
2022/08/15 08:16:40;;;;;;;4.90;4.50;;;;;;;22.30;nan;98924.81;5045019;28;20108;-80
2022/08/15 08:19:22;;;;;;;4.93;4.40;;;;;;;22.40;nan;98933.13;5048626;28;20486;-80
2022/08/15 08:22:18;;;;;;;4.72;4.38;;;;;;;22.51;nan;98922.59;5045875;28;20357;-80
2022/08/15 08:24:57;;;;;;;5.32;4.43;;;;;;;22.57;nan;98916.28;5052665;28;20044;-81
2022/08/15 08:27:33;;;;;;;5.50;5.05;;;;;;;22.58;nan;98915.22;5050869;28;20107;-81
2022/08/15 08:30:05;;;;;;;5.20;4.47;;;;;;;22.63;nan;98928.78;5051778;28;20036;-81
2022/08/15 08:32:47;;;;;;;5.20;4.70;;;;;;;22.71;nan;98933.81;5086149;28;20104;-81
2022/08/15 08:35:21;;;;;;;6.10;4.68;;;;;;;22.81;nan;98936.72;5052667;28;20044;-82
2022/08/15 08:38:11;;;;;;;5.80;4.50;;;;;;;22.94;nan;98931.09;5051374;28;20078;-81
2022/08/15 08:44:20;;;;;;;4.70;4.18;;;;;;;23.11;nan;98915.84;5051574;28;20478;-80
2022/08/15 08:46:59;;;;;;;4.88;4.38;;;;;;;23.19;nan;98914.66;5050873;28;20044;-80
2022/08/15 08:49:31;;;;;;;4.88;4.55;;;;;;;23.27;nan;98915.06;5048437;28;20040;-80
2022/08/15 08:52:03;;;;;;;5.40;4.93;;;;;;;23.36;nan;98914.69;5049728;28;20448;-80
2022/08/15 08:54:44;;;;;;;7.15;4.75;;;;;;;23.45;nan;98921.31;5051961;28;20123;-79
2022/08/15 08:57:16;;;;;;;5.32;4.72;;;;;;;23.52;nan;98913.94;5048759;28;20112;-80
2022/08/15 08:59:52;;;;;;;5.45;4.22;;;;;;;23.62;nan;98912.25;5051027;28;20482;-80
2022/08/15 09:02:41;;;;;;;6.47;4.53;;;;;;;23.71;nan;98910.00;5050911;28;20041;-80
2022/08/15 09:05:41;;;;;;;4.78;4.30;;;;;;;23.79;nan;98906.09;5046340;28;20489;-81
2022/08/15 09:08:15;;;;;;;5.90;4.20;;;;;;;23.82;nan;98901.03;5051042;28;20493;-80
2022/08/15 09:10:45;;;;;;;4.60;3.83;;;;;;;23.90;nan;98897.94;5051544;28;20029;-80
2022/08/15 09:13:33;;;;;;;4.57;4.18;;;;;;;24.00;nan;98899.97;5049757;28;20045;-81
2022/08/15 09:16:19;;;;;;;4.43;4.03;;;;;;;24.05;nan;98895.47;5049779;28;20106;-80
2022/08/15 09:19:20;;;;;;;4.30;4.00;;;;;;;24.17;nan;98889.16;5049771;28;20082;-80
2022/08/15 09:21:47;;;;;;;4.32;3.92;;;;;;;24.25;nan;98888.78;5047747;28;20493;-79
2022/08/15 09:24:16;;;;;;;4.55;4.15;;;;;;;24.33;nan;98885.66;5049178;28;20083;-80
2022/08/15 09:26:47;;;;;;;3.85;3.58;;;;;;;24.38;nan;98877.66;5049443;28;20094;-79
2022/08/15 09:29:12;;;;;;;4.40;4.05;;;;;;;24.46;nan;98882.63;5047998;28;20477;-80
2022/08/15 09:31:41;;;;;;;4.40;4.00;;;;;;;24.52;nan;98878.94;5050027;28;20036;-79
2022/08/15 09:34:55;;;;;;;4.63;3.42;;;;;;;24.61;nan;98877.44;5049655;28;20065;-79
2022/08/15 09:37:29;;;;;;;3.10;2.88;;;;;;;24.66;nan;98869.41;5051141;28;20061;-80
2022/08/15 09:40:21;;;;;;;3.08;2.88;;;;;;;24.75;nan;98873.28;5046408;28;20033;-80
2022/08/15 09:43:04;;;;;;;4.00;3.10;;;;;;;24.81;nan;98866.91;5044956;28;20037;-80
2022/08/15 09:46:02;;;;;;;3.25;3.05;;;;;;;24.90;nan;98874.59;5049968;28;20033;-79
2022/08/15 09:48:31;;;;;;;3.17;2.88;;;;;;;24.97;nan;98869.81;5045206;28;20140;-81
2022/08/15 09:51:16;;;;;;;3.35;2.80;;;;;;;25.05;nan;98874.75;5048096;28;20545;-80
2022/08/15 09:53:48;;;;;;;3.08;2.88;;;;;;;25.13;nan;98879.72;5048692;28;20504;-81
2022/08/15 09:56:19;;;;;;;4.53;3.00;;;;;;;25.24;nan;98882.28;5050961;28;20033;-80
2022/08/15 09:59:06;;;;;;;3.95;3.15;;;;;;;25.32;nan;98880.19;5047538;28;20548;-80
2022/08/15 10:01:41;;;;;;;3.55;3.25;;;;;;;25.40;nan;98875.13;5045594;28;20464;-79
2022/08/15 10:04:12;;;;;;;4.03;3.15;;;;;;;25.49;nan;98870.91;5051007;28;20448;-80
2022/08/15 10:07:10;;;;;;;4.00;3.50;;;;;;;25.56;nan;98868.88;5050778;28;20065;-79
2022/08/15 10:09:42;;;;;;;4.30;3.47;;;;;;;25.67;nan;98864.34;5034987;28;20507;-79
2022/08/15 10:12:08;;;;;;;3.50;3.30;;;;;;;25.68;nan;98866.78;5047231;28;20056;-79
2022/08/15 10:14:51;;;;;;;3.33;2.75;;;;;;;25.77;nan;98863.63;5048024;28;20086;-79
2022/08/15 10:17:33;;;;;;;3.10;2.90;;;;;;;25.83;nan;98862.59;5050373;28;20465;-80
2022/08/15 10:20:17;;;;;;;2.88;2.67;;;;;;;25.91;nan;98867.53;5046598;28;20037;-80
2022/08/15 10:22:46;;;;;;;4.40;3.47;;;;;;;25.93;nan;98851.84;5048278;28;20493;-80
2022/08/15 10:25:30;;;;;;;4.77;3.23;;;;;;;25.99;nan;98857.03;5042901;28;20030;-80
2022/08/15 10:27:56;;;;;;;2.90;2.70;;;;;;;26.07;nan;98848.44;5048666;28;20760;-80
2022/08/15 10:30:25;;;;;;;3.13;2.92;;;;;;;26.18;nan;98848.50;5049255;28;20032;-79
2022/08/15 10:32:53;;;;;;;3.30;3.00;;;;;;;26.25;nan;98847.25;5046538;28;20028;-80
2022/08/15 10:35:36;;;;;;;4.60;3.60;;;;;;;26.27;nan;98847.78;5048116;28;20037;-80
2022/08/15 10:38:07;;;;;;;3.20;3.00;;;;;;;26.31;nan;98843.50;5048363;28;20082;-79
2022/08/15 10:40:44;;;;;;;3.85;3.50;;;;;;;26.35;nan;98844.59;5046831;28;20089;-78
2022/08/15 10:43:46;;;;;;;3.60;3.08;;;;;;;26.45;nan;98838.41;5048912;28;20439;-78
2022/08/15 10:46:20;;;;;;;4.30;3.25;;;;;;;26.61;nan;98836.63;5047886;28;20039;-80
2022/08/15 10:49:15;;;;;;;3.40;3.15;;;;;;;26.67;nan;98835.56;5049793;28;20508;-80
2022/08/15 10:51:53;;;;;;;3.60;3.30;;;;;;;26.69;nan;98823.38;5046156;28;20485;-80
2022/08/15 10:54:24;;;;;;;4.10;3.13;;;;;;;26.74;nan;98819.91;5044221;28;20155;-80
2022/08/15 10:56:56;;;;;;;8.20;7.15;;;;;;;26.84;nan;98820.75;5045510;28;20491;-80
2022/08/15 10:59:29;;;;;;;4.65;4.25;;;;;;;26.93;nan;98818.34;5051016;28;20091;-79
2022/08/15 11:02:15;;;;;;;4.63;3.28;;;;;;;27.00;nan;98818.91;5045628;28;20120;-79
2022/08/15 11:04:42;;;;;;;2.97;2.78;;;;;;;27.03;nan;98810.25;5044560;28;20486;-80
2022/08/15 11:07:28;;;;;;;3.47;3.15;;;;;;;27.03;nan;98812.97;5049773;28;20037;-80
2022/08/15 11:10:01;;;;;;;3.88;3.30;;;;;;;27.03;nan;98812.16;5044324;28;20032;-81
2022/08/15 11:12:31;;;;;;;3.55;3.25;;;;;;;27.09;nan;98805.66;5051683;28;20478;-81
2022/08/15 11:15:04;;;;;;;3.67;3.22;;;;;;;27.10;nan;98807.28;5042406;28;20474;-80
2022/08/15 11:17:35;;;;;;;3.53;3.00;;;;;;;27.10;nan;98801.84;5046854;28;20032;-81
2022/08/15 11:20:24;;;;;;;5.18;2.95;;;;;;;27.08;nan;98799.44;5049144;28;20033;-80
2022/08/15 11:22:57;;;;;;;3.92;3.03;;;;;;;27.07;nan;98803.22;5049778;28;20032;-81
2022/08/15 11:25:29;;;;;;;3.20;2.90;;;;;;;27.08;nan;98791.31;5044617;28;21100;-81
2022/08/15 11:28:03;;;;;;;3.70;3.40;;;;;;;27.16;nan;98779.13;5047509;28;20044;-81
2022/08/15 11:30:33;;;;;;;3.10;2.90;;;;;;;27.22;nan;98784.28;5048630;28;20053;-81
2022/08/15 11:33:23;;;;;;;4.18;2.90;;;;;;;27.28;nan;98775.06;5046954;28;20036;-80
2022/08/15 11:36:03;;;;;;;3.40;3.20;;;;;;;27.44;nan;98775.09;5047142;28;20041;-81
2022/08/15 11:38:35;;;;;;;3.95;2.58;;;;;;;27.50;nan;98774.00;5049955;28;20099;-81
2022/08/15 11:41:01;;;;;;;3.72;2.88;;;;;;;27.51;nan;98764.84;5047147;28;20132;-80
2022/08/15 11:43:28;;;;;;;3.33;2.65;;;;;;;27.50;nan;98757.75;5049509;28;20386;-81
2022/08/15 11:45:55;;;;;;;3.08;2.88;;;;;;;27.50;nan;98746.91;5048953;28;20036;-80
2022/08/15 11:48:27;;;;;;;4.25;2.92;;;;;;;27.53;nan;98751.81;5049827;28;20029;-80
2022/08/15 11:51:23;;;;;;;3.55;3.25;;;;;;;27.67;nan;98742.88;5049521;28;20033;-81
2022/08/15 11:54:01;;;;;;;3.22;3.03;;;;;;;27.76;nan;98745.81;5049393;28;21015;-80
2022/08/15 11:56:48;;;;;;;3.08;2.88;;;;;;;27.91;nan;98742.28;5051413;28;20393;-80
2022/08/15 11:59:21;;;;;;;2.83;2.67;;;;;;;28.15;nan;98737.09;5052736;28;20400;-78
2022/08/15 12:02:25;;;;;;;4.70;2.92;;;;;;;28.29;nan;98732.69;5052804;28;20037;-80
2022/08/15 12:04:50;;;;;;;3.03;2.80;;;;;;;28.51;nan;98727.72;5050635;28;20397;-81
2022/08/15 12:07:24;;;;;;;3.88;3.05;;;;;;;28.76;nan;98733.00;5050187;28;20031;-80
2022/08/15 12:09:58;;;;;;;3.22;2.90;;;;;;;29.02;nan;98724.72;5050274;28;20072;-81
2022/08/15 12:12:26;;;;;;;5.82;2.90;;;;;;;29.21;nan;98728.38;5052511;28;20075;-82
2022/08/15 12:15:00;;;;;;;3.50;2.88;;;;;;;29.45;nan;98728.47;5044448;28;20029;-82
2022/08/15 12:17:29;;;;;;;3.10;2.80;;;;;;;29.61;nan;98721.78;5051496;28;20033;-82
2022/08/15 12:19:56;;;;;;;4.85;2.97;;;;;;;62.74;100.00;61586.06;5052535;28;20033;-82
2022/08/15 12:22:36;;;;;;;3.78;2.40;;;;;;;104.25;100.00;61586.06;5052735;28;20024;-80
2022/08/15 12:25:03;;;;;;;2.55;2.40;;;;;;;62.74;100.00;61586.06;5051536;28;20116;-82
2022/08/15 12:27:29;;;;;;;3.92;2.80;;;;;;;104.25;100.00;61586.06;5052997;28;20040;-82